createdAt,value
2019-01-16T00:00:17.510Z,987.96
2019-01-16T00:01:17.517Z,988.01
2019-01-16T00:02:17.488Z,988.01
2019-01-16T00:03:17.501Z,988.00
2019-01-16T00:04:17.513Z,987.94
2019-01-16T00:05:17.504Z,987.99
2019-01-16T00:06:17.530Z,987.93
2019-01-16T00:07:17.440Z,987.95
2019-01-16T00:08:17.425Z,988.02
2019-01-16T00:09:17.477Z,987.93
2019-01-16T00:10:17.471Z,987.88
2019-01-16T00:11:17.398Z,987.93
2019-01-16T00:12:17.408Z,987.92
2019-01-16T00:13:17.371Z,987.88
2019-01-16T00:14:17.421Z,987.91
2019-01-16T00:15:17.386Z,987.87
2019-01-16T00:16:17.379Z,987.84
2019-01-16T00:17:17.348Z,987.82
2019-01-16T00:18:17.456Z,987.84
2019-01-16T00:19:17.334Z,987.85
2019-01-16T00:20:17.321Z,987.86
2019-01-16T00:21:17.313Z,987.86
2019-01-16T00:22:17.276Z,987.77
2019-01-16T00:23:17.283Z,987.78
2019-01-16T00:24:17.281Z,987.80
2019-01-16T00:25:17.264Z,987.76
2019-01-16T00:26:17.259Z,987.78
2019-01-16T00:27:17.231Z,987.73
2019-01-16T00:28:17.229Z,987.72
2019-01-16T00:29:17.223Z,987.73
2019-01-16T00:30:17.214Z,987.72
2019-01-16T00:31:17.245Z,987.69
2019-01-16T00:32:17.173Z,987.68
2019-01-16T00:33:17.165Z,987.68
2019-01-16T00:34:17.164Z,987.64
2019-01-16T00:35:17.193Z,987.64
2019-01-16T00:36:17.163Z,987.71
2019-01-16T00:37:17.126Z,987.69
2019-01-16T00:38:17.127Z,987.72
2019-01-16T00:39:17.106Z,987.71
2019-01-16T00:40:17.116Z,987.68
2019-01-16T00:41:17.079Z,987.66
2019-01-16T00:42:17.065Z,987.67
2019-01-16T00:43:17.086Z,987.72
2019-01-16T00:44:17.059Z,987.66
2019-01-16T00:45:17.053Z,987.70
2019-01-16T00:46:17.028Z,987.70
2019-01-16T00:47:17.029Z,987.68
2019-01-16T00:48:17.012Z,987.74
2019-01-16T00:49:16.995Z,987.66
2019-01-16T00:50:17.054Z,987.71
2019-01-16T00:51:16.971Z,987.64
2019-01-16T00:52:17.019Z,987.62
2019-01-16T00:53:17.039Z,987.58
2019-01-16T00:54:16.980Z,987.63
2019-01-16T00:55:16.931Z,987.59
2019-01-16T00:56:16.965Z,987.63
2019-01-16T00:57:16.905Z,987.60
2019-01-16T00:58:16.911Z,987.65
2019-01-16T00:59:16.929Z,987.64
2019-01-16T01:00:16.879Z,987.63
2019-01-16T01:01:16.909Z,987.63
2019-01-16T01:02:16.880Z,987.57
2019-01-16T01:03:16.855Z,987.55
2019-01-16T01:04:16.835Z,987.52
2019-01-16T01:05:16.865Z,987.57
2019-01-16T01:06:16.819Z,987.53
2019-01-16T01:07:16.821Z,987.57
2019-01-16T01:08:16.798Z,987.52
2019-01-16T01:09:16.890Z,987.53
2019-01-16T01:10:16.790Z,987.51
2019-01-16T01:11:16.775Z,987.44
2019-01-16T01:12:16.776Z,987.56
2019-01-16T01:13:16.756Z,987.49
2019-01-16T01:14:16.738Z,987.52
2019-01-16T01:15:16.725Z,987.48
2019-01-16T01:16:16.745Z,987.49
2019-01-16T01:17:16.693Z,987.50
2019-01-16T01:18:16.693Z,987.51
2019-01-16T01:19:16.680Z,987.50
2019-01-16T01:20:16.702Z,987.48
2019-01-16T01:21:16.654Z,987.47
2019-01-16T01:22:16.652Z,987.49
2019-01-16T01:23:16.627Z,987.56
2019-01-16T01:24:16.645Z,987.55
2019-01-16T01:25:16.635Z,987.53
2019-01-16T01:26:16.600Z,987.47
2019-01-16T01:27:16.593Z,987.48
2019-01-16T01:28:16.594Z,987.49
2019-01-16T01:29:16.574Z,987.49
2019-01-16T01:30:16.595Z,987.47
2019-01-16T01:31:16.544Z,987.48
2019-01-16T01:32:16.555Z,987.40
2019-01-16T01:33:16.526Z,987.37
2019-01-16T01:34:16.514Z,987.41
2019-01-16T01:35:16.536Z,987.37
2019-01-16T01:36:16.721Z,987.36
2019-01-16T01:37:16.480Z,987.39
2019-01-16T01:38:16.486Z,987.31
2019-01-16T01:39:16.475Z,987.41
2019-01-16T01:40:16.468Z,987.44
2019-01-16T01:41:16.448Z,987.43
2019-01-16T01:42:16.458Z,987.45
2019-01-16T01:43:16.433Z,987.44
2019-01-16T01:44:16.433Z,987.37
2019-01-16T01:45:16.409Z,987.42
2019-01-16T01:46:16.387Z,987.40
2019-01-16T01:47:16.406Z,987.45
2019-01-16T01:48:16.385Z,987.48
2019-01-16T01:49:16.356Z,987.47
2019-01-16T01:50:16.379Z,987.44
2019-01-16T01:51:16.369Z,987.48
2019-01-16T01:52:16.324Z,987.51
2019-01-16T01:53:16.314Z,987.50
2019-01-16T01:54:16.414Z,987.46
2019-01-16T01:55:16.328Z,987.47
2019-01-16T01:56:16.285Z,987.47
2019-01-16T01:57:16.277Z,987.47
2019-01-16T01:58:16.295Z,987.48
2019-01-16T01:59:16.257Z,987.46
2019-01-16T02:00:16.511Z,987.44
2019-01-16T02:01:16.226Z,987.49
2019-01-16T02:02:16.217Z,987.41
2019-01-16T02:03:16.203Z,987.41
2019-01-16T02:04:16.207Z,987.43
2019-01-16T02:05:16.233Z,987.36
2019-01-16T02:06:16.183Z,987.44
2019-01-16T02:07:16.180Z,987.48
2019-01-16T02:08:16.150Z,987.44
2019-01-16T02:09:16.148Z,987.37
2019-01-16T02:10:16.162Z,987.36
2019-01-16T02:11:16.151Z,987.44
2019-01-16T02:12:16.131Z,987.43
2019-01-16T02:13:16.141Z,987.37
2019-01-16T02:14:16.116Z,987.40
2019-01-16T02:15:16.115Z,987.45
2019-01-16T02:16:16.073Z,987.30
2019-01-16T02:17:16.083Z,987.41
2019-01-16T02:18:16.062Z,987.35
2019-01-16T02:19:16.039Z,987.35
2019-01-16T02:20:16.150Z,987.40
2019-01-16T02:21:16.033Z,987.38
2019-01-16T02:22:16.080Z,987.29
2019-01-16T02:23:15.998Z,987.39
2019-01-16T02:24:16.028Z,987.34
2019-01-16T02:25:16.032Z,987.33
2019-01-16T02:26:16.002Z,987.35
2019-01-16T02:27:15.953Z,987.33
2019-01-16T02:28:15.951Z,987.33
2019-01-16T02:29:15.948Z,987.28
2019-01-16T02:30:15.922Z,987.24
2019-01-16T02:31:16.022Z,987.26
2019-01-16T02:32:15.901Z,987.16
2019-01-16T02:33:15.904Z,987.26
2019-01-16T02:34:15.884Z,987.16
2019-01-16T02:35:15.886Z,987.18
2019-01-16T02:36:15.876Z,987.15
2019-01-16T02:37:15.848Z,987.17
2019-01-16T02:38:15.835Z,987.15
2019-01-16T02:39:15.828Z,987.14
2019-01-16T02:40:15.819Z,987.17
2019-01-16T02:41:15.875Z,987.11
2019-01-16T02:42:15.790Z,987.10
2019-01-16T02:43:15.807Z,987.17
2019-01-16T02:44:15.775Z,987.13
2019-01-16T02:45:15.760Z,987.04
2019-01-16T02:46:15.784Z,987.13
2019-01-16T02:47:15.752Z,987.18
2019-01-16T02:48:15.758Z,987.14
2019-01-16T02:49:15.717Z,987.12
2019-01-16T02:50:15.709Z,987.10
2019-01-16T02:51:15.748Z,987.11
2019-01-16T02:52:15.696Z,987.16
2019-01-16T02:53:15.696Z,987.07
2019-01-16T02:54:15.667Z,987.04
2019-01-16T02:55:15.673Z,987.07
2019-01-16T02:56:15.669Z,986.99
2019-01-16T02:57:15.638Z,987.02
2019-01-16T02:58:15.634Z,987.01
2019-01-16T02:59:15.633Z,986.97
2019-01-16T03:00:15.812Z,987.06
2019-01-16T03:01:15.637Z,987.06
2019-01-16T03:02:15.613Z,986.99
2019-01-16T03:03:15.583Z,986.93
2019-01-16T03:04:15.571Z,986.98
2019-01-16T03:05:15.568Z,987.00
2019-01-16T03:06:15.561Z,986.94
2019-01-16T03:07:15.523Z,986.96
2019-01-16T03:08:15.529Z,986.85
2019-01-16T03:09:15.611Z,986.86
2019-01-16T03:10:15.501Z,986.89
2019-01-16T03:11:15.500Z,986.82
2019-01-16T03:12:15.489Z,986.87
2019-01-16T03:13:15.461Z,986.82
2019-01-16T03:14:15.462Z,986.84
2019-01-16T03:15:15.446Z,986.86
2019-01-16T03:16:15.466Z,986.83
2019-01-16T03:17:15.422Z,986.82
2019-01-16T03:18:15.415Z,986.83
2019-01-16T03:19:15.405Z,986.78
2019-01-16T03:20:15.400Z,986.76
2019-01-16T03:21:15.729Z,986.80
2019-01-16T03:22:15.389Z,986.80
2019-01-16T03:23:15.359Z,986.77
2019-01-16T03:24:15.352Z,986.81
2019-01-16T03:25:15.345Z,986.77
2019-01-16T03:26:15.404Z,986.71
2019-01-16T03:27:15.317Z,986.67
2019-01-16T03:28:15.317Z,986.67
2019-01-16T03:29:15.332Z,986.72
2019-01-16T03:30:15.294Z,986.65
2019-01-16T03:31:15.337Z,986.64
2019-01-16T03:32:15.284Z,986.61
2019-01-16T03:33:15.258Z,986.67
2019-01-16T03:34:15.244Z,986.66
2019-01-16T03:35:15.251Z,986.62
2019-01-16T03:36:15.229Z,986.60
2019-01-16T03:37:15.302Z,986.67
2019-01-16T03:38:15.199Z,986.58
2019-01-16T03:39:15.205Z,986.61
2019-01-16T03:40:15.174Z,986.55
2019-01-16T03:41:15.232Z,986.57
2019-01-16T03:42:15.411Z,986.56
2019-01-16T03:43:15.194Z,986.50
2019-01-16T03:44:15.144Z,986.56
2019-01-16T03:45:15.138Z,986.53
2019-01-16T03:46:15.110Z,986.46
2019-01-16T03:47:15.205Z,986.55
2019-01-16T03:48:15.094Z,986.49
2019-01-16T03:49:15.101Z,986.46
2019-01-16T03:50:15.086Z,986.45
2019-01-16T03:51:15.055Z,986.42
2019-01-16T03:52:15.092Z,986.45
2019-01-16T03:53:15.048Z,986.47
2019-01-16T03:54:15.041Z,986.43
2019-01-16T03:55:15.048Z,986.44
2019-01-16T03:56:15.013Z,986.41
2019-01-16T03:57:15.020Z,986.36
2019-01-16T03:58:14.990Z,986.33
2019-01-16T03:59:14.997Z,986.38
2019-01-16T04:00:14.965Z,986.41
2019-01-16T04:01:14.992Z,986.42
2019-01-16T04:02:15.010Z,986.41
2019-01-16T04:03:15.130Z,986.35
2019-01-16T04:04:14.936Z,986.39
2019-01-16T04:05:14.908Z,986.36
2019-01-16T04:06:14.910Z,986.35
2019-01-16T04:07:14.906Z,986.35
2019-01-16T04:08:14.955Z,986.37
2019-01-16T04:09:14.887Z,986.32
2019-01-16T04:10:14.875Z,986.31
2019-01-16T04:11:14.889Z,986.33
2019-01-16T04:12:14.906Z,986.27
2019-01-16T04:13:14.827Z,986.34
2019-01-16T04:14:14.824Z,986.28
2019-01-16T04:15:14.810Z,986.26
2019-01-16T04:16:14.818Z,986.28
2019-01-16T04:17:14.837Z,986.25
2019-01-16T04:18:14.791Z,986.19
2019-01-16T04:19:21.557Z,986.16
2019-01-16T04:20:15.816Z,986.23
2019-01-16T04:21:14.754Z,986.14
2019-01-16T04:22:14.767Z,986.15
2019-01-16T04:23:14.732Z,986.17
2019-01-16T04:24:14.976Z,986.19
2019-01-16T04:25:14.749Z,986.13
2019-01-16T04:26:14.692Z,986.10
2019-01-16T04:27:14.743Z,986.11
2019-01-16T04:28:14.697Z,986.10
2019-01-16T04:29:14.658Z,986.10
2019-01-16T04:30:14.681Z,986.02
2019-01-16T04:31:14.709Z,986.05
2019-01-16T04:32:14.709Z,985.99
2019-01-16T04:33:14.687Z,985.97
2019-01-16T04:34:14.688Z,985.99
2019-01-16T04:35:14.613Z,985.90
2019-01-16T04:36:14.580Z,985.91
2019-01-16T04:37:14.723Z,985.88
2019-01-16T04:38:14.629Z,985.87
2019-01-16T04:39:14.612Z,985.86
2019-01-16T04:40:14.542Z,985.88
2019-01-16T04:41:14.531Z,985.78
2019-01-16T04:42:14.517Z,985.80
2019-01-16T04:43:14.591Z,985.78
2019-01-16T04:44:14.524Z,985.73
2019-01-16T04:45:14.499Z,985.70
2019-01-16T04:46:14.523Z,985.66
2019-01-16T04:47:14.474Z,985.71
2019-01-16T04:48:14.498Z,985.68
2019-01-16T04:49:14.452Z,985.66
2019-01-16T04:50:14.446Z,985.59
2019-01-16T04:51:14.476Z,985.60
2019-01-16T04:52:14.424Z,985.51
2019-01-16T04:53:14.469Z,985.51
2019-01-16T04:54:14.401Z,985.55
2019-01-16T04:55:14.479Z,985.54
2019-01-16T04:56:14.383Z,985.49
2019-01-16T04:57:14.413Z,985.60
2019-01-16T04:58:14.496Z,985.49
2019-01-16T04:59:14.336Z,985.54
2019-01-16T05:00:14.337Z,985.49
2019-01-16T05:01:14.313Z,985.47
2019-01-16T05:02:14.330Z,985.48
2019-01-16T05:03:14.343Z,985.49
2019-01-16T05:04:14.464Z,985.49
2019-01-16T05:05:14.303Z,985.47
2019-01-16T05:06:14.298Z,985.48
2019-01-16T05:07:14.265Z,985.41
2019-01-16T05:08:14.300Z,985.50
2019-01-16T05:09:14.247Z,985.44
2019-01-16T05:10:14.308Z,985.44
2019-01-16T05:11:14.229Z,985.43
2019-01-16T05:12:14.278Z,985.43
2019-01-16T05:13:14.582Z,985.41
2019-01-16T05:14:15.195Z,985.36
2019-01-16T05:15:14.240Z,985.42
2019-01-16T05:16:14.197Z,985.39
2019-01-16T05:17:14.179Z,985.38
2019-01-16T05:18:14.270Z,985.38
2019-01-16T05:19:14.158Z,985.34
2019-01-16T05:20:14.174Z,985.33
2019-01-16T05:21:14.124Z,985.38
2019-01-16T05:22:14.100Z,985.37
2019-01-16T05:23:14.094Z,985.27
2019-01-16T05:24:14.580Z,985.31
2019-01-16T05:25:14.072Z,985.28
2019-01-16T05:26:14.056Z,985.27
2019-01-16T05:27:14.263Z,985.28
2019-01-16T05:28:14.039Z,985.29
2019-01-16T05:29:14.047Z,985.29
2019-01-16T05:30:14.030Z,985.23
2019-01-16T05:31:13.998Z,985.22
2019-01-16T05:32:13.984Z,985.19
2019-01-16T05:33:13.989Z,985.19
2019-01-16T05:34:14.483Z,985.20
2019-01-16T05:35:14.007Z,985.20
2019-01-16T05:36:13.943Z,985.19
2019-01-16T05:37:13.979Z,985.24
2019-01-16T05:38:14.056Z,985.18
2019-01-16T05:39:13.991Z,985.17
2019-01-16T05:40:13.975Z,985.14
2019-01-16T05:41:13.906Z,985.17
2019-01-16T05:42:13.907Z,985.18
2019-01-16T05:43:13.904Z,985.18
2019-01-16T05:44:13.853Z,985.16
2019-01-16T05:45:13.929Z,985.19
2019-01-16T05:46:13.840Z,985.19
2019-01-16T05:47:13.850Z,985.22
2019-01-16T05:48:13.901Z,985.17
2019-01-16T05:49:13.830Z,985.20
2019-01-16T05:50:14.524Z,985.19
2019-01-16T05:51:13.784Z,985.20
2019-01-16T05:52:13.773Z,985.20
2019-01-16T05:53:13.758Z,985.17
2019-01-16T05:54:13.829Z,985.17
2019-01-16T05:55:13.761Z,985.10
2019-01-16T05:56:13.752Z,985.08
2019-01-16T05:57:13.721Z,985.07
2019-01-16T05:58:13.709Z,985.11
2019-01-16T05:59:13.703Z,985.02
2019-01-16T06:00:13.723Z,985.08
2019-01-16T06:01:13.686Z,985.08
2019-01-16T06:02:13.703Z,985.07
2019-01-16T06:03:13.662Z,985.07
2019-01-16T06:04:13.743Z,985.05
2019-01-16T06:05:13.631Z,985.08
2019-01-16T06:06:13.654Z,985.06
2019-01-16T06:07:13.620Z,985.02
2019-01-16T06:08:13.632Z,985.04
2019-01-16T06:09:13.782Z,984.95
2019-01-16T06:10:13.624Z,984.95
2019-01-16T06:11:13.671Z,984.93
2019-01-16T06:12:13.593Z,985.00
2019-01-16T06:13:13.551Z,984.94
2019-01-16T06:14:13.576Z,984.91
2019-01-16T06:15:13.533Z,984.92
2019-01-16T06:16:13.565Z,984.96
2019-01-16T06:17:13.540Z,984.94
2019-01-16T06:18:13.505Z,984.96
2019-01-16T06:19:13.522Z,984.97
2019-01-16T06:20:13.499Z,984.96
2019-01-16T06:21:13.465Z,984.95
2019-01-16T06:22:13.524Z,984.94
2019-01-16T06:23:13.456Z,984.93
2019-01-16T06:24:13.448Z,984.91
2019-01-16T06:25:13.435Z,984.89
2019-01-16T06:26:13.414Z,984.90
2019-01-16T06:27:13.438Z,984.92
2019-01-16T06:28:13.387Z,984.92
2019-01-16T06:29:13.390Z,984.86
2019-01-16T06:30:13.732Z,984.91
2019-01-16T06:31:13.389Z,984.94
2019-01-16T06:32:13.348Z,984.95
2019-01-16T06:33:13.339Z,984.96
2019-01-16T06:34:13.325Z,984.85
2019-01-16T06:35:13.334Z,984.91
2019-01-16T06:36:13.304Z,984.94
2019-01-16T06:37:13.320Z,984.95
2019-01-16T06:38:13.290Z,984.95
2019-01-16T06:39:13.296Z,984.96
2019-01-16T06:40:13.278Z,984.94
2019-01-16T06:41:13.262Z,984.97
2019-01-16T06:42:13.238Z,984.93
2019-01-16T06:43:13.273Z,984.92
2019-01-16T06:44:13.221Z,984.94
2019-01-16T06:45:13.237Z,984.95
2019-01-16T06:46:13.201Z,984.97
2019-01-16T06:47:13.187Z,985.02
2019-01-16T06:48:13.177Z,984.99
2019-01-16T06:49:13.178Z,984.93
2019-01-16T06:50:16.683Z,984.96
2019-01-16T06:51:13.421Z,985.00
2019-01-16T06:52:13.161Z,985.00
2019-01-16T06:53:13.124Z,984.95
2019-01-16T06:54:13.118Z,984.94
2019-01-16T06:55:13.575Z,984.92
2019-01-16T06:56:13.099Z,984.96
2019-01-16T06:57:13.079Z,984.92
2019-01-16T06:58:13.079Z,984.93
2019-01-16T06:59:13.057Z,984.90
2019-01-16T07:00:13.065Z,984.92
2019-01-16T07:01:13.060Z,984.91
2019-01-16T07:02:13.060Z,984.96
2019-01-16T07:03:13.726Z,984.95
2019-01-16T07:04:13.068Z,985.01
2019-01-16T07:05:13.543Z,984.98
2019-01-16T07:06:12.983Z,984.96
2019-01-16T07:07:12.978Z,984.96
2019-01-16T07:08:12.987Z,984.92
2019-01-16T07:09:12.976Z,984.92
2019-01-16T07:10:12.969Z,984.91
2019-01-16T07:11:12.949Z,984.85
2019-01-16T07:12:12.923Z,984.83
2019-01-16T07:13:13.472Z,984.86
2019-01-16T07:14:12.902Z,984.88
2019-01-16T07:15:12.957Z,984.89
2019-01-16T07:16:12.886Z,984.86
2019-01-16T07:17:12.877Z,984.88
2019-01-16T07:18:12.864Z,984.86
2019-01-16T07:19:12.849Z,984.83
2019-01-16T07:20:12.849Z,984.81
2019-01-16T07:21:12.846Z,984.82
2019-01-16T07:22:12.838Z,984.78
2019-01-16T07:23:12.804Z,984.74
2019-01-16T07:24:12.794Z,984.77
2019-01-16T07:25:12.792Z,984.76
2019-01-16T07:26:12.774Z,984.76
2019-01-16T07:27:12.760Z,984.71
2019-01-16T07:28:12.768Z,984.71
2019-01-16T07:29:12.756Z,984.63
2019-01-16T07:30:13.466Z,984.67
2019-01-16T07:31:12.719Z,984.64
2019-01-16T07:32:12.738Z,984.66
2019-01-16T07:33:12.703Z,984.62
2019-01-16T07:34:12.711Z,984.63
2019-01-16T07:35:12.715Z,984.64
2019-01-16T07:36:12.669Z,984.68
2019-01-16T07:37:12.665Z,984.72
2019-01-16T07:38:12.646Z,984.74
2019-01-16T07:39:12.639Z,984.77
2019-01-16T07:40:12.669Z,984.78
2019-01-16T07:41:12.621Z,984.72
2019-01-16T07:42:12.601Z,984.76
2019-01-16T07:43:12.648Z,984.78
2019-01-16T07:44:12.582Z,984.81
2019-01-16T07:45:12.573Z,984.83
2019-01-16T07:46:12.685Z,984.75
2019-01-16T07:47:12.607Z,984.75
2019-01-16T07:48:12.550Z,984.68
2019-01-16T07:49:12.534Z,984.66
2019-01-16T07:50:17.155Z,984.64
2019-01-16T07:51:13.528Z,984.64
2019-01-16T07:52:12.497Z,984.56
2019-01-16T07:53:12.544Z,984.55
2019-01-16T07:54:12.493Z,984.61
2019-01-16T07:55:12.472Z,984.63
2019-01-16T07:56:12.468Z,984.64
2019-01-16T07:57:12.442Z,984.61
2019-01-16T07:58:12.434Z,984.64
2019-01-16T07:59:12.444Z,984.73
2019-01-16T08:00:12.434Z,984.66
2019-01-16T08:01:12.425Z,984.67
2019-01-16T08:02:12.389Z,984.74
2019-01-16T08:03:12.389Z,984.73
2019-01-16T08:04:12.366Z,984.74
2019-01-16T08:05:12.354Z,984.75
2019-01-16T08:06:12.399Z,984.73
2019-01-16T08:07:12.340Z,984.70
2019-01-16T08:08:12.364Z,984.71
2019-01-16T08:09:12.315Z,984.67
2019-01-16T08:10:12.301Z,984.70
2019-01-16T08:11:12.313Z,984.73
2019-01-16T08:12:12.321Z,984.75
2019-01-16T08:13:12.279Z,984.77
2019-01-16T08:14:12.260Z,984.80
2019-01-16T08:15:12.249Z,984.82
2019-01-16T08:16:12.251Z,984.79
2019-01-16T08:17:12.230Z,984.76
2019-01-16T08:18:12.233Z,984.79
2019-01-16T08:19:12.244Z,984.76
2019-01-16T08:20:12.285Z,984.85
2019-01-16T08:21:12.184Z,984.85
2019-01-16T08:22:12.213Z,984.88
2019-01-16T08:23:12.215Z,984.86
2019-01-16T08:24:12.216Z,984.94
2019-01-16T08:25:12.171Z,984.90
2019-01-16T08:26:12.165Z,984.83
2019-01-16T08:27:12.126Z,984.80
2019-01-16T08:28:12.192Z,984.81
2019-01-16T08:29:12.099Z,984.82
2019-01-16T08:30:12.098Z,984.85
2019-01-16T08:31:12.085Z,984.82
2019-01-16T08:32:12.081Z,984.85
2019-01-16T08:33:12.127Z,984.84
2019-01-16T08:34:12.064Z,984.87
2019-01-16T08:35:12.041Z,984.88
2019-01-16T08:36:12.046Z,984.94
2019-01-16T08:37:12.025Z,984.79
2019-01-16T08:38:12.710Z,984.77
2019-01-16T08:39:12.008Z,984.74
2019-01-16T08:40:12.045Z,984.83
2019-01-16T08:41:11.998Z,984.84
2019-01-16T08:42:11.977Z,984.79
2019-01-16T08:43:11.990Z,984.82
2019-01-16T08:44:13.827Z,984.84
2019-01-16T08:45:11.935Z,984.82
2019-01-16T08:46:11.926Z,984.87
2019-01-16T08:47:11.918Z,984.84
2019-01-16T08:48:11.978Z,984.85
2019-01-16T08:49:11.903Z,984.83
2019-01-16T08:50:11.934Z,984.93
2019-01-16T08:51:11.910Z,984.81
2019-01-16T08:52:11.900Z,984.81
2019-01-16T08:53:11.861Z,984.85
2019-01-16T08:54:11.837Z,984.81
2019-01-16T08:55:11.841Z,984.80
2019-01-16T08:56:11.853Z,984.65
2019-01-16T08:57:11.805Z,984.72
2019-01-16T08:58:11.860Z,984.70
2019-01-16T08:59:11.782Z,984.67
2019-01-16T09:00:11.802Z,984.60
2019-01-16T09:01:11.814Z,984.64
2019-01-16T09:02:11.767Z,984.58
2019-01-16T09:03:11.769Z,984.57
2019-01-16T09:04:11.783Z,984.52
2019-01-16T09:05:11.736Z,984.50
2019-01-16T09:06:11.725Z,984.50
2019-01-16T09:07:11.721Z,984.42
2019-01-16T09:08:11.709Z,984.44
2019-01-16T09:09:11.722Z,984.39
2019-01-16T09:10:11.684Z,984.45
2019-01-16T09:11:11.650Z,984.43
2019-01-16T09:12:11.640Z,984.37
2019-01-16T09:13:11.694Z,984.44
2019-01-16T09:14:11.655Z,984.30
2019-01-16T09:15:11.631Z,984.41
2019-01-16T09:16:11.604Z,984.47
2019-01-16T09:17:11.592Z,984.46
2019-01-16T09:18:11.626Z,984.53
2019-01-16T09:19:11.601Z,984.51
2019-01-16T09:20:11.589Z,984.47
2019-01-16T09:21:11.552Z,984.47
2019-01-16T09:22:11.552Z,984.47
2019-01-16T09:23:11.528Z,984.47
2019-01-16T09:24:11.540Z,984.42
2019-01-16T09:25:11.527Z,984.43
2019-01-16T09:26:11.521Z,984.42
2019-01-16T09:27:11.490Z,984.37
2019-01-16T09:28:11.530Z,984.31
2019-01-16T09:29:11.486Z,984.34
2019-01-16T09:30:11.454Z,984.45
2019-01-16T09:31:11.459Z,984.44
2019-01-16T09:32:11.457Z,984.41
2019-01-16T09:33:11.438Z,984.40
2019-01-16T09:34:11.438Z,984.39
2019-01-16T09:35:11.420Z,984.39
2019-01-16T09:36:11.389Z,984.40
2019-01-16T09:37:11.386Z,984.38
2019-01-16T09:38:11.407Z,984.40
2019-01-16T09:39:11.371Z,984.36
2019-01-16T09:40:11.358Z,984.30
2019-01-16T09:41:11.361Z,984.30
2019-01-16T09:42:11.336Z,984.32
2019-01-16T09:43:11.316Z,984.35
2019-01-16T09:44:11.321Z,984.31
2019-01-16T09:45:11.306Z,984.42
2019-01-16T09:46:11.333Z,984.29
2019-01-16T09:47:11.326Z,984.32
2019-01-16T09:48:11.284Z,984.22
2019-01-16T09:49:11.272Z,984.16
2019-01-16T09:50:11.246Z,984.18
2019-01-16T09:51:11.235Z,984.19
2019-01-16T09:52:11.245Z,984.12
2019-01-16T09:53:11.245Z,984.18
2019-01-16T09:54:11.216Z,984.11
2019-01-16T09:55:11.207Z,984.22
2019-01-16T09:56:11.179Z,984.16
2019-01-16T09:57:11.169Z,984.22
2019-01-16T09:58:11.156Z,984.21
2019-01-16T09:59:11.195Z,984.10
2019-01-16T10:00:11.141Z,984.10
2019-01-16T10:01:11.124Z,984.07
2019-01-16T10:02:11.117Z,984.09
2019-01-16T10:03:11.112Z,984.10
2019-01-16T10:04:11.119Z,984.03
2019-01-16T10:05:11.086Z,984.06
2019-01-16T10:06:11.089Z,984.04
2019-01-16T10:07:11.074Z,983.92
2019-01-16T10:08:11.045Z,983.93
2019-01-16T10:09:11.046Z,983.94
2019-01-16T10:10:11.049Z,983.97
2019-01-16T10:11:11.017Z,983.90
2019-01-16T10:12:11.030Z,983.92
2019-01-16T10:13:11.003Z,983.97
2019-01-16T10:14:10.981Z,984.01
2019-01-16T10:15:10.976Z,983.94
2019-01-16T10:16:10.976Z,983.96
2019-01-16T10:17:10.949Z,983.99
2019-01-16T10:18:10.975Z,983.90
2019-01-16T10:19:10.954Z,983.87
2019-01-16T10:20:10.923Z,983.87
2019-01-16T10:21:10.911Z,983.85
2019-01-16T10:22:10.899Z,983.90
2019-01-16T10:23:10.891Z,983.88
2019-01-16T10:24:10.934Z,983.87
2019-01-16T10:25:10.868Z,983.85
2019-01-16T10:26:10.854Z,983.80
2019-01-16T10:27:10.851Z,983.87
2019-01-16T10:28:10.838Z,983.83
2019-01-16T10:29:10.838Z,983.84
2019-01-16T10:30:10.842Z,983.88
2019-01-16T10:31:10.804Z,983.84
2019-01-16T10:32:10.800Z,983.76
2019-01-16T10:33:10.781Z,983.81
2019-01-16T10:34:10.786Z,983.84
2019-01-16T10:35:10.762Z,983.80
2019-01-16T10:36:10.768Z,983.81
2019-01-16T10:37:10.762Z,983.76
2019-01-16T10:38:10.729Z,983.75
2019-01-16T10:39:10.740Z,983.73
2019-01-16T10:40:10.710Z,983.76
2019-01-16T10:41:10.712Z,983.75
2019-01-16T10:42:10.701Z,983.68
2019-01-16T10:43:10.696Z,983.65
2019-01-16T10:44:10.690Z,983.67
2019-01-16T10:45:10.657Z,983.77
2019-01-16T10:46:10.645Z,983.86
2019-01-16T10:47:10.632Z,983.84
2019-01-16T10:48:10.629Z,983.69
2019-01-16T10:49:10.630Z,983.68
2019-01-16T10:50:10.654Z,983.61
2019-01-16T10:51:10.590Z,983.62
2019-01-16T10:52:10.583Z,983.59
2019-01-16T10:53:10.577Z,983.57
2019-01-16T10:54:10.560Z,983.57
2019-01-16T10:55:10.574Z,983.60
2019-01-16T10:56:10.548Z,983.55
2019-01-16T10:57:10.535Z,983.49
2019-01-16T10:58:10.542Z,983.57
2019-01-16T10:59:10.505Z,983.58
2019-01-16T11:00:10.566Z,983.50
2019-01-16T11:01:10.621Z,983.48
2019-01-16T11:02:10.505Z,983.43
2019-01-16T11:03:10.494Z,983.44
2019-01-16T11:04:10.451Z,983.43
2019-01-16T11:05:10.442Z,983.38
2019-01-16T11:06:10.434Z,983.41
2019-01-16T11:07:10.464Z,983.39
2019-01-16T11:08:10.435Z,983.36
2019-01-16T11:09:10.396Z,983.32
2019-01-16T11:10:10.465Z,983.34
2019-01-16T11:11:16.005Z,983.28
2019-01-16T11:12:11.369Z,983.34
2019-01-16T11:13:10.363Z,983.38
2019-01-16T11:14:10.379Z,983.40
2019-01-16T11:15:10.377Z,983.31
2019-01-16T11:16:10.323Z,983.33
2019-01-16T11:17:10.316Z,983.32
2019-01-16T11:18:10.305Z,983.26
2019-01-16T11:19:10.292Z,983.25
2019-01-16T11:20:10.292Z,983.23
2019-01-16T11:21:11.063Z,983.14
2019-01-16T11:22:10.262Z,983.09
2019-01-16T11:23:10.465Z,983.13
2019-01-16T11:24:10.239Z,983.09
2019-01-16T11:25:10.235Z,983.08
2019-01-16T11:26:10.247Z,983.05
2019-01-16T11:27:10.221Z,983.00
2019-01-16T11:28:10.196Z,982.95
2019-01-16T11:29:10.194Z,983.04
2019-01-16T11:30:10.194Z,982.93
2019-01-16T11:31:10.181Z,982.89
2019-01-16T11:32:10.153Z,982.92
2019-01-16T11:33:10.155Z,982.81
2019-01-16T11:34:10.138Z,982.88
2019-01-16T11:35:10.503Z,982.74
2019-01-16T11:36:10.130Z,982.81
2019-01-16T11:37:10.187Z,982.74
2019-01-16T11:38:10.095Z,982.82
2019-01-16T11:39:10.094Z,982.85
2019-01-16T11:40:10.112Z,982.81
2019-01-16T11:41:10.104Z,982.84
2019-01-16T11:42:10.069Z,982.82
2019-01-16T11:43:10.041Z,982.77
2019-01-16T11:44:10.258Z,982.74
2019-01-16T11:45:10.106Z,982.69
2019-01-16T11:46:10.034Z,982.68
2019-01-16T11:47:10.004Z,982.67
2019-01-16T11:48:10.003Z,982.61
2019-01-16T11:49:09.994Z,982.64
2019-01-16T11:50:09.989Z,982.68
2019-01-16T11:51:09.976Z,982.61
2019-01-16T11:52:09.943Z,982.58
2019-01-16T11:53:10.001Z,982.60
2019-01-16T11:54:09.936Z,982.56
2019-01-16T11:55:09.939Z,982.53
2019-01-16T11:56:09.925Z,982.51
2019-01-16T11:57:09.903Z,982.45
2019-01-16T11:58:09.882Z,982.49
2019-01-16T11:59:09.878Z,982.43
2019-01-16T12:00:09.924Z,982.43
2019-01-16T12:01:09.871Z,982.43
2019-01-16T12:02:38.241Z,982.43
2019-01-16T12:03:10.829Z,982.35
2019-01-16T12:04:09.873Z,982.38
2019-01-16T12:05:09.807Z,982.34
2019-01-16T12:06:09.811Z,982.37
2019-01-16T12:07:09.791Z,982.32
2019-01-16T12:08:09.798Z,982.34
2019-01-16T12:09:09.782Z,982.34
2019-01-16T12:10:09.779Z,982.35
2019-01-16T12:11:09.757Z,982.36
2019-01-16T12:12:09.790Z,982.37
2019-01-16T12:13:09.720Z,982.32
2019-01-16T12:14:09.711Z,982.32
2019-01-16T12:15:09.722Z,982.26
2019-01-16T12:16:09.691Z,982.27
2019-01-16T12:17:09.686Z,982.23
2019-01-16T12:18:09.722Z,982.13
2019-01-16T12:19:09.653Z,982.21
2019-01-16T12:20:09.653Z,982.25
2019-01-16T12:21:09.657Z,982.26
2019-01-16T12:22:09.639Z,982.29
2019-01-16T12:23:09.614Z,982.27
2019-01-16T12:24:09.652Z,982.24
2019-01-16T12:25:09.603Z,982.17
2019-01-16T12:26:09.620Z,982.23
2019-01-16T12:27:09.602Z,982.22
2019-01-16T12:28:09.567Z,982.21